AirNav   Duncan Aviation - Near you to keep you flying
 
 1464 users online  

25IL Holzwarth Flying Service Airport
Virden, Illinois, USA

GOING TO VIRDEN?


FAA INFORMATION EFFECTIVE 01 DECEMBER 2022

Location

FAA Identifier: 25IL
Lat/Long: 39-30-59.2050N 089-52-10.8250W
39-30.986750N 089-52.180417W
39.5164458,-89.8696736
(estimated)
Elevation: 681 ft. / 208 m (estimated)
Variation: 01E (1990)
From city: 5 miles W of VIRDEN, IL
Time zone: UTC -6 (UTC -5 during Daylight Saving Time)
Zip code: 62690

Airport Operations

Airport use: Private use. Permission required prior to landing
Activation date: 03/1993
Control tower: no
ARTCC: KANSAS CITY CENTER
FSS: SAINT LOUIS FLIGHT SERVICE STATION
Attendance: UNATNDD
Wind indicator: yes
Segmented circle: no

Nearby radio navigation aids

VOR radial/distance  VOR name  Freq  Var
SPIr206/21.3SPINNER VORTAC112.7001W

Airport Services

Runway Information

Runway 9/27

Dimensions: 2640 x 100 ft. / 805 x 30 m
Surface: turf
RUNWAY 9  RUNWAY 27
Traffic pattern: leftleft
Obstructions: nonepline, marked

Airport Ownership and Management from official FAA records

Ownership: Privately-owned
Owner: CHUCK HOLZWARTH
PO BOX 407
VIRDEN, IL 62690
Phone 217-965-5268
Manager: CHUCK HOLZWARTH
PO BOX 407
VIRDEN, IL 62690
Phone 217-965-5268

Airport Operational Statistics

Aircraft based on the field: 4
Single engine airplanes: 4
    

Additional Remarks

FOR CD CTC ST LOUIS APCH 314-890-1017. WHEN ST LOUIS APCH IS CLSD, CTC KANSAS CITY ARTCC AT 913-254-8508.

Instrument Procedures

There are no published instrument procedures at 25IL.

Some nearby airports with instrument procedures:

KSPI - Abraham Lincoln Capital Airport (22 nm NE)
KIJX - Jacksonville Municipal Airport (23 nm NW)
3LF - Litchfield Municipal Airport (23 nm SE)
KTAZ - Taylorville Municipal Airport (25 nm E)
KALN - St Louis Regional Airport (38 nm S)
 
Loc | Ops | Rwys | IFR | FBO | Links
Com | Nav | Svcs | Stats | Notes
Area around 25IL (Holzwarth Flying Service Airport)
 
Road maps at: MapQuest Bing Google
 
Aerial photo
No photo
 
Sectional chart

 
Airport distance calculator
Flying to Holzwarth Flying Service Airport? Find the distance to fly.

From to 25IL

Sunrise and sunset
Times for 07-Dec-2022
 Local
(UTC-6)
 Zulu
(UTC)
Morning civil twilight06:3712:37
Sunrise07:0713:07
Sunset16:3522:35
Evening civil twilight17:0523:05

Current date and time
Zulu (UTC)  07-Dec-2022 14:37:24
Local (UTC-6)  07-Dec-2022 08:37:24
 
METAR
KSPI 
22nm NE 
071422Z 06005KT 1SM R04/P6000FT BR OVC002 04/03 A3024 RMK AO2 T00440033
KIJX 
23nm NW 
071415Z AUTO 09003KT 2 1/2SM BKN032 04/04 A3023 RMK AO2 T00360036
K3LF 
23nm SE 
071415Z AUTO 01003KT 4SM BR OVC033 05/05 A3024 RMK AO2 T00520045
KTAZ 
25nm E 
071415Z AUTO 04003KT 3/4SM OVC003 03/03 A3024 RMK AO2 T00300029 PWINO
KALN 
39nm S 
071350Z VRB03KT 2 1/2SM BR OVC027 07/06 A3022
KPPQ 
43nm W 
071415Z AUTO 00000KT 4SM SCT034 06/06 A3023 RMK AO2 T00550055
TAF
KSPI 
22nm NE 
071121Z 0712/0812 VRB03KT 2SM BR OVC004 TEMPO 0712/0714 3/4SM BR VV002 FM071500 VRB03KT 6SM BR BKN007 FM071800 33005KT P6SM BKN018 FM080000 04003KT P6SM SCT180 BKN250 FM080800 06008KT P6SM BKN018
NOTAMs
Click for the latest NOTAMs
NOTAMs are issued by the DoD/FAA and will open in a separate window not controlled by AirNav.

 

 
 

Would you like to see your business listed on this page?

 If your business provides an interesting product or service to pilots, flight crews, aircraft, or users of the Holzwarth Flying Service Airport, you should consider listing it here.  To start the listing process, click on the button below
 
Add a business
 

Other Pages about Holzwarth Flying Service Airport

Update a link
 
Copyright © AirNav, LLC. All rights reserved. Privacy Policy  Contact